Route Details

Aircraft Information
Group: Trans-Pacific Ops
Types: B744, MD11
Route Data
Distance: 3296nm
Duration: 8h 50m
Origin METAR: PANC 181653Z 15014G22KT 10SM OVC070 12/07 A2991 RMK AO2 PK WND 15027/1636 RAB23E35 SLP128 P0000 T01170067
Dest. METAR: RKSI 181700Z 17004KT 110V180 CAVOK 25/22 Q1006 NOSIG
Freight Data
(for Aug 18, 2022)
Load Factor:
11.6%
Manifested Cargo: 25,668lbs
Financial History
Total Freight: 574,342lbs
Average Load: 0lbs/flt
Fuel Used: 1,070,416lbs
Avg. Fuel Used: 0lbs/flt
Fuel Expense: $1,186,070
Avg. Fuel Expense: $0
Avg. Fuel Cost: $0/lbs
Total Gross Income: $1,766,055
Pilot Pay: $1,952
Total Expenses: $206,947
Total Revenue: $353,673
Average Revenue: $0

Capitol Logistics 866




PANC
Ted Stevens Anchorage International Airport
Anchorage, Alaska
RKSI
Incheon International Airport
Seoul,